Chaves, Brazil
Current Conditions -  °F | °C
As of 5:00 PM on Friday 31 Oct 2014 (Local Time) from SBMQ Reporting Station
Few Clouds Few Clouds  
Wind Chill: 91°   Ceiling: Unl
Heat Index: 98°   Visibility: 6mi
Dew Point: 72°   Wind: 15mph
Humidity: 52%   Direction: 60°ENE
Pressure: 29.8"   Gusts: NA
Location:  0.2°S, 49.92°W
Report Text: SBMQ 312000Z 06013KT 9999 FEW030 33/22 Q1009
Loading
Personal Weather Stations






























Interactive Weather Map
Tropical Storm Tracking
New forecast layout! Learn more

10-Day Weather Forecast

Advertisements
Track Severe Weather on mobile